sensor_id;sensor_type;location;lat;lon;timestamp;P1;durP1;ratioP1;P2;durP2;ratioP2
57057;SDS011;55017;52.848;6.748;2023-05-07T00:01:23;136.30;;;131.20;;
57057;SDS011;55017;52.848;6.748;2023-05-07T00:03:49;135.38;;;130.30;;
57057;SDS011;55017;52.848;6.748;2023-05-07T00:06:14;130.07;;;124.93;;
57057;SDS011;55017;52.848;6.748;2023-05-07T00:08:40;129.32;;;124.13;;
57057;SDS011;55017;52.848;6.748;2023-05-07T00:11:05;129.98;;;124.93;;
57057;SDS011;55017;52.848;6.748;2023-05-07T00:13:31;135.20;;;129.90;;
57057;SDS011;55017;52.848;6.748;2023-05-07T00:16:00;135.65;;;130.38;;
57057;SDS011;55017;52.848;6.748;2023-05-07T00:18:29;138.60;;;133.07;;
57057;SDS011;55017;52.848;6.748;2023-05-07T00:20:55;132.25;;;126.75;;
57057;SDS011;55017;52.848;6.748;2023-05-07T00:23:21;138.15;;;132.60;;
57057;SDS011;55017;52.848;6.748;2023-05-07T00:25:47;134.18;;;128.68;;
57057;SDS011;55017;52.848;6.748;2023-05-07T00:28:12;134.98;;;129.52;;
57057;SDS011;55017;52.848;6.748;2023-05-07T00:30:38;132.20;;;126.80;;
57057;SDS011;55017;52.848;6.748;2023-05-07T00:33:03;136.30;;;130.77;;
57057;SDS011;55017;52.848;6.748;2023-05-07T00:35:29;134.00;;;128.50;;
57057;SDS011;55017;52.848;6.748;2023-05-07T00:37:55;138.35;;;132.65;;
57057;SDS011;55017;52.848;6.748;2023-05-07T00:40:20;144.00;;;138.00;;
57057;SDS011;55017;52.848;6.748;2023-05-07T00:42:46;136.65;;;131.02;;
57057;SDS011;55017;52.848;6.748;2023-05-07T00:45:14;137.32;;;131.32;;
57057;SDS011;55017;52.848;6.748;2023-05-07T00:47:40;142.55;;;136.95;;
57057;SDS011;55017;52.848;6.748;2023-05-07T00:50:06;137.93;;;132.30;;
57057;SDS011;55017;52.848;6.748;2023-05-07T00:52:33;135.65;;;129.98;;
57057;SDS011;55017;52.848;6.748;2023-05-07T00:54:59;139.07;;;133.23;;
57057;SDS011;55017;52.848;6.748;2023-05-07T00:57:29;137.95;;;131.80;;
57057;SDS011;55017;52.848;6.748;2023-05-07T01:00:05;145.65;;;139.50;;
57057;SDS011;55017;52.848;6.748;2023-05-07T01:02:33;139.52;;;133.60;;
57057;SDS011;55017;52.848;6.748;2023-05-07T01:05:00;136.63;;;130.73;;
57057;SDS011;55017;52.848;6.748;2023-05-07T01:07:26;142.18;;;136.07;;
57057;SDS011;55017;52.848;6.748;2023-05-07T01:09:52;135.73;;;129.68;;
57057;SDS011;55017;52.848;6.748;2023-05-07T01:12:18;138.90;;;133.05;;
57057;SDS011;55017;52.848;6.748;2023-05-07T01:14:45;147.23;;;141.10;;
57057;SDS011;55017;52.848;6.748;2023-05-07T01:17:10;134.63;;;128.73;;
57057;SDS011;55017;52.848;6.748;2023-05-07T01:19:36;139.38;;;133.43;;
57057;SDS011;55017;52.848;6.748;2023-05-07T01:22:03;136.77;;;130.82;;
57057;SDS011;55017;52.848;6.748;2023-05-07T01:24:32;135.98;;;130.07;;
57057;SDS011;55017;52.848;6.748;2023-05-07T01:26:58;138.55;;;132.73;;
57057;SDS011;55017;52.848;6.748;2023-05-07T01:29:24;137.20;;;131.20;;
57057;SDS011;55017;52.848;6.748;2023-05-07T01:31:50;136.63;;;130.68;;
57057;SDS011;55017;52.848;6.748;2023-05-07T01:34:17;143.98;;;137.27;;
57057;SDS011;55017;52.848;6.748;2023-05-07T01:36:45;133.00;;;126.97;;
57057;SDS011;55017;52.848;6.748;2023-05-07T01:39:11;139.30;;;133.10;;
57057;SDS011;55017;52.848;6.748;2023-05-07T01:41:38;133.35;;;127.47;;
57057;SDS011;55017;52.848;6.748;2023-05-07T01:44:04;143.88;;;137.45;;
57057;SDS011;55017;52.848;6.748;2023-05-07T01:46:31;141.85;;;135.88;;
57057;SDS011;55017;52.848;6.748;2023-05-07T01:48:57;135.55;;;129.55;;
57057;SDS011;55017;52.848;6.748;2023-05-07T01:51:23;136.82;;;130.77;;
57057;SDS011;55017;52.848;6.748;2023-05-07T01:53:49;138.45;;;132.15;;
57057;SDS011;55017;52.848;6.748;2023-05-07T01:56:16;135.90;;;129.68;;
57057;SDS011;55017;52.848;6.748;2023-05-07T01:58:44;140.13;;;133.55;;
57057;SDS011;55017;52.848;6.748;2023-05-07T02:01:11;135.43;;;129.23;;
57057;SDS011;55017;52.848;6.748;2023-05-07T02:03:37;139.63;;;133.13;;
57057;SDS011;55017;52.848;6.748;2023-05-07T02:06:03;139.98;;;133.50;;
57057;SDS011;55017;52.848;6.748;2023-05-07T02:08:28;135.98;;;129.85;;
57057;SDS011;55017;52.848;6.748;2023-05-07T02:10:55;137.13;;;130.75;;
57057;SDS011;55017;52.848;6.748;2023-05-07T02:13:20;139.40;;;133.15;;
57057;SDS011;55017;52.848;6.748;2023-05-07T02:15:47;141.43;;;134.98;;
57057;SDS011;55017;52.848;6.748;2023-05-07T02:18:15;140.10;;;133.70;;
57057;SDS011;55017;52.848;6.748;2023-05-07T02:20:41;137.55;;;131.05;;
57057;SDS011;55017;52.848;6.748;2023-05-07T02:23:07;141.90;;;135.40;;
57057;SDS011;55017;52.848;6.748;2023-05-07T02:25:32;139.85;;;133.20;;
57057;SDS011;55017;52.848;6.748;2023-05-07T02:27:58;147.60;;;140.57;;
57057;SDS011;55017;52.848;6.748;2023-05-07T02:30:24;140.63;;;134.13;;
57057;SDS011;55017;52.848;6.748;2023-05-07T02:32:50;144.23;;;137.40;;
57057;SDS011;55017;52.848;6.748;2023-05-07T02:35:16;145.90;;;139.05;;
57057;SDS011;55017;52.848;6.748;2023-05-07T02:37:41;143.85;;;137.00;;
57057;SDS011;55017;52.848;6.748;2023-05-07T02:40:07;148.60;;;141.32;;
57057;SDS011;55017;52.848;6.748;2023-05-07T02:42:33;145.32;;;138.68;;
57057;SDS011;55017;52.848;6.748;2023-05-07T02:44:58;146.00;;;139.10;;
57057;SDS011;55017;52.848;6.748;2023-05-07T02:47:24;146.30;;;139.00;;
57057;SDS011;55017;52.848;6.748;2023-05-07T02:49:52;145.98;;;138.88;;
57057;SDS011;55017;52.848;6.748;2023-05-07T02:52:18;142.95;;;136.05;;
57057;SDS011;55017;52.848;6.748;2023-05-07T02:54:44;147.18;;;139.80;;
57057;SDS011;55017;52.848;6.748;2023-05-07T02:57:09;148.57;;;141.32;;
57057;SDS011;55017;52.848;6.748;2023-05-07T02:59:35;149.73;;;142.52;;
57057;SDS011;55017;52.848;6.748;2023-05-07T03:02:00;150.90;;;143.45;;
57057;SDS011;55017;52.848;6.748;2023-05-07T03:04:26;150.50;;;142.57;;
57057;SDS011;55017;52.848;6.748;2023-05-07T03:06:51;150.30;;;142.55;;
57057;SDS011;55017;52.848;6.748;2023-05-07T03:09:17;151.75;;;144.00;;
57057;SDS011;55017;52.848;6.748;2023-05-07T03:11:43;150.40;;;143.23;;
57057;SDS011;55017;52.848;6.748;2023-05-07T03:14:08;152.77;;;144.85;;
57057;SDS011;55017;52.848;6.748;2023-05-07T03:16:34;164.55;;;156.65;;
57057;SDS011;55017;52.848;6.748;2023-05-07T03:18:59;145.35;;;137.90;;
57057;SDS011;55017;52.848;6.748;2023-05-07T03:21:25;148.75;;;140.85;;
57057;SDS011;55017;52.848;6.748;2023-05-07T03:23:51;151.32;;;143.57;;
57057;SDS011;55017;52.848;6.748;2023-05-07T03:26:17;146.65;;;138.95;;
57057;SDS011;55017;52.848;6.748;2023-05-07T03:28:42;151.60;;;143.63;;
57057;SDS011;55017;52.848;6.748;2023-05-07T03:31:08;147.07;;;139.38;;
57057;SDS011;55017;52.848;6.748;2023-05-07T03:33:34;150.85;;;142.93;;
57057;SDS011;55017;52.848;6.748;2023-05-07T03:36:02;151.45;;;143.45;;
57057;SDS011;55017;52.848;6.748;2023-05-07T03:38:28;147.68;;;140.00;;
57057;SDS011;55017;52.848;6.748;2023-05-07T03:40:53;151.68;;;143.60;;
57057;SDS011;55017;52.848;6.748;2023-05-07T03:43:19;151.55;;;143.68;;
57057;SDS011;55017;52.848;6.748;2023-05-07T03:45:45;149.90;;;141.98;;
57057;SDS011;55017;52.848;6.748;2023-05-07T03:48:10;151.82;;;143.77;;
57057;SDS011;55017;52.848;6.748;2023-05-07T03:50:36;153.23;;;145.45;;
57057;SDS011;55017;52.848;6.748;2023-05-07T03:53:02;148.90;;;141.15;;
57057;SDS011;55017;52.848;6.748;2023-05-07T03:55:28;152.70;;;144.10;;
57057;SDS011;55017;52.848;6.748;2023-05-07T03:57:54;151.70;;;143.75;;
57057;SDS011;55017;52.848;6.748;2023-05-07T04:00:21;149.05;;;141.27;;
57057;SDS011;55017;52.848;6.748;2023-05-07T04:02:47;148.73;;;140.73;;
57057;SDS011;55017;52.848;6.748;2023-05-07T04:05:12;150.43;;;142.73;;
57057;SDS011;55017;52.848;6.748;2023-05-07T04:07:40;155.70;;;147.07;;
57057;SDS011;55017;52.848;6.748;2023-05-07T04:10:05;151.75;;;143.73;;
57057;SDS011;55017;52.848;6.748;2023-05-07T04:12:31;153.55;;;145.73;;
57057;SDS011;55017;52.848;6.748;2023-05-07T04:14:57;149.68;;;142.02;;
57057;SDS011;55017;52.848;6.748;2023-05-07T04:17:22;151.52;;;143.82;;
57057;SDS011;55017;52.848;6.748;2023-05-07T04:19:48;148.38;;;141.05;;
57057;SDS011;55017;52.848;6.748;2023-05-07T04:22:13;150.45;;;143.07;;
57057;SDS011;55017;52.848;6.748;2023-05-07T04:24:39;146.38;;;139.10;;
57057;SDS011;55017;52.848;6.748;2023-05-07T04:27:05;146.88;;;139.82;;
57057;SDS011;55017;52.848;6.748;2023-05-07T04:29:31;144.98;;;137.80;;
57057;SDS011;55017;52.848;6.748;2023-05-07T04:31:56;148.43;;;141.23;;
57057;SDS011;55017;52.848;6.748;2023-05-07T04:34:23;151.07;;;143.88;;
57057;SDS011;55017;52.848;6.748;2023-05-07T04:36:49;149.52;;;142.43;;
57057;SDS011;55017;52.848;6.748;2023-05-07T04:39:15;145.27;;;138.48;;
57057;SDS011;55017;52.848;6.748;2023-05-07T04:41:41;143.15;;;136.35;;
57057;SDS011;55017;52.848;6.748;2023-05-07T04:44:06;147.15;;;140.10;;
57057;SDS011;55017;52.848;6.748;2023-05-07T04:46:32;145.00;;;138.23;;
57057;SDS011;55017;52.848;6.748;2023-05-07T04:48:57;146.75;;;139.48;;
57057;SDS011;55017;52.848;6.748;2023-05-07T04:51:23;142.32;;;135.82;;
57057;SDS011;55017;52.848;6.748;2023-05-07T04:53:48;146.43;;;139.57;;
57057;SDS011;55017;52.848;6.748;2023-05-07T04:56:14;147.02;;;140.30;;
57057;SDS011;55017;52.848;6.748;2023-05-07T04:58:40;146.77;;;140.13;;
57057;SDS011;55017;52.848;6.748;2023-05-07T05:01:05;145.57;;;138.85;;
57057;SDS011;55017;52.848;6.748;2023-05-07T05:03:31;142.90;;;136.18;;
57057;SDS011;55017;52.848;6.748;2023-05-07T05:05:56;148.02;;;141.05;;
57057;SDS011;55017;52.848;6.748;2023-05-07T05:08:24;139.95;;;133.65;;
57057;SDS011;55017;52.848;6.748;2023-05-07T05:10:50;141.70;;;135.13;;
57057;SDS011;55017;52.848;6.748;2023-05-07T05:13:15;147.10;;;140.05;;
57057;SDS011;55017;52.848;6.748;2023-05-07T05:15:41;147.05;;;140.07;;
57057;SDS011;55017;52.848;6.748;2023-05-07T05:18:07;145.60;;;138.88;;
57057;SDS011;55017;52.848;6.748;2023-05-07T05:20:32;142.77;;;136.07;;
57057;SDS011;55017;52.848;6.748;2023-05-07T05:22:58;142.27;;;135.70;;
57057;SDS011;55017;52.848;6.748;2023-05-07T05:25:23;148.40;;;141.27;;
57057;SDS011;55017;52.848;6.748;2023-05-07T05:27:49;140.65;;;133.98;;
57057;SDS011;55017;52.848;6.748;2023-05-07T05:30:15;143.98;;;137.32;;
57057;SDS011;55017;52.848;6.748;2023-05-07T05:32:40;143.30;;;136.75;;
57057;SDS011;55017;52.848;6.748;2023-05-07T05:35:06;148.05;;;141.00;;
57057;SDS011;55017;52.848;6.748;2023-05-07T05:37:32;145.60;;;138.73;;
57057;SDS011;55017;52.848;6.748;2023-05-07T05:39:57;146.60;;;139.70;;
57057;SDS011;55017;52.848;6.748;2023-05-07T05:42:23;145.68;;;139.18;;
57057;SDS011;55017;52.848;6.748;2023-05-07T05:44:48;145.35;;;138.70;;
57057;SDS011;55017;52.848;6.748;2023-05-07T05:47:14;145.10;;;138.40;;
57057;SDS011;55017;52.848;6.748;2023-05-07T05:49:40;144.52;;;138.02;;
57057;SDS011;55017;52.848;6.748;2023-05-07T05:52:05;146.65;;;139.93;;
57057;SDS011;55017;52.848;6.748;2023-05-07T05:54:31;151.05;;;143.93;;
57057;SDS011;55017;52.848;6.748;2023-05-07T05:56:56;147.55;;;140.82;;
57057;SDS011;55017;52.848;6.748;2023-05-07T05:59:22;145.85;;;139.15;;
57057;SDS011;55017;52.848;6.748;2023-05-07T06:01:48;144.68;;;138.00;;
57057;SDS011;55017;52.848;6.748;2023-05-07T06:04:13;145.55;;;138.95;;
57057;SDS011;55017;52.848;6.748;2023-05-07T06:06:39;149.60;;;142.55;;
57057;SDS011;55017;52.848;6.748;2023-05-07T06:09:05;147.73;;;141.02;;
57057;SDS011;55017;52.848;6.748;2023-05-07T06:11:31;148.98;;;142.05;;
57057;SDS011;55017;52.848;6.748;2023-05-07T06:13:57;147.73;;;140.85;;
57057;SDS011;55017;52.848;6.748;2023-05-07T06:16:24;142.52;;;136.02;;
57057;SDS011;55017;52.848;6.748;2023-05-07T06:18:50;144.80;;;138.15;;
57057;SDS011;55017;52.848;6.748;2023-05-07T06:21:15;149.73;;;142.82;;
57057;SDS011;55017;52.848;6.748;2023-05-07T06:23:41;149.32;;;142.25;;
57057;SDS011;55017;52.848;6.748;2023-05-07T06:26:06;146.70;;;139.90;;
57057;SDS011;55017;52.848;6.748;2023-05-07T06:28:32;148.80;;;141.50;;
57057;SDS011;55017;52.848;6.748;2023-05-07T06:31:17;149.23;;;141.93;;
57057;SDS011;55017;52.848;6.748;2023-05-07T06:33:47;145.10;;;138.25;;
57057;SDS011;55017;52.848;6.748;2023-05-07T06:36:13;149.73;;;142.60;;
57057;SDS011;55017;52.848;6.748;2023-05-07T06:38:39;149.07;;;142.18;;
57057;SDS011;55017;52.848;6.748;2023-05-07T06:41:08;150.05;;;142.95;;
57057;SDS011;55017;52.848;6.748;2023-05-07T06:45:59;143.10;;;136.32;;
57057;SDS011;55017;52.848;6.748;2023-05-07T06:48:24;141.48;;;134.93;;
57057;SDS011;55017;52.848;6.748;2023-05-07T06:50:50;144.90;;;138.23;;
57057;SDS011;55017;52.848;6.748;2023-05-07T06:53:15;146.00;;;139.25;;
57057;SDS011;55017;52.848;6.748;2023-05-07T06:55:41;144.60;;;137.93;;
57057;SDS011;55017;52.848;6.748;2023-05-07T06:58:06;149.60;;;142.40;;
57057;SDS011;55017;52.848;6.748;2023-05-07T07:00:32;145.40;;;138.40;;
57057;SDS011;55017;52.848;6.748;2023-05-07T07:02:58;147.90;;;140.80;;
57057;SDS011;55017;52.848;6.748;2023-05-07T07:05:24;146.60;;;139.27;;
57057;SDS011;55017;52.848;6.748;2023-05-07T07:07:50;147.27;;;140.13;;
57057;SDS011;55017;52.848;6.748;2023-05-07T07:10:21;150.00;;;142.90;;
57057;SDS011;55017;52.848;6.748;2023-05-07T07:12:47;149.48;;;142.27;;
57057;SDS011;55017;52.848;6.748;2023-05-07T07:15:13;143.20;;;136.60;;
57057;SDS011;55017;52.848;6.748;2023-05-07T07:17:39;149.80;;;142.45;;
57057;SDS011;55017;52.848;6.748;2023-05-07T07:20:05;146.30;;;139.20;;
57057;SDS011;55017;52.848;6.748;2023-05-07T07:22:31;142.53;;;135.83;;
57057;SDS011;55017;52.848;6.748;2023-05-07T07:24:57;146.13;;;138.85;;
57057;SDS011;55017;52.848;6.748;2023-05-07T07:27:22;146.75;;;139.50;;
57057;SDS011;55017;52.848;6.748;2023-05-07T07:29:48;141.80;;;134.90;;
57057;SDS011;55017;52.848;6.748;2023-05-07T07:32:13;151.07;;;143.88;;
57057;SDS011;55017;52.848;6.748;2023-05-07T07:34:40;145.55;;;138.55;;
57057;SDS011;55017;52.848;6.748;2023-05-07T07:37:06;146.25;;;139.18;;
57057;SDS011;55017;52.848;6.748;2023-05-07T07:39:32;149.05;;;141.70;;
57057;SDS011;55017;52.848;6.748;2023-05-07T07:41:58;148.05;;;140.75;;
57057;SDS011;55017;52.848;6.748;2023-05-07T07:44:23;148.70;;;141.60;;
57057;SDS011;55017;52.848;6.748;2023-05-07T07:46:49;144.90;;;138.03;;
57057;SDS011;55017;52.848;6.748;2023-05-07T07:49:15;146.63;;;139.67;;
57057;SDS011;55017;52.848;6.748;2023-05-07T07:51:41;147.60;;;140.60;;
57057;SDS011;55017;52.848;6.748;2023-05-07T07:54:07;154.00;;;146.70;;
57057;SDS011;55017;52.848;6.748;2023-05-07T07:56:33;143.70;;;136.60;;
57057;SDS011;55017;52.848;6.748;2023-05-07T07:58:59;146.80;;;139.45;;
57057;SDS011;55017;52.848;6.748;2023-05-07T08:01:25;144.65;;;137.65;;
57057;SDS011;55017;52.848;6.748;2023-05-07T08:03:50;139.40;;;132.70;;
57057;SDS011;55017;52.848;6.748;2023-05-07T08:06:16;148.65;;;141.75;;
57057;SDS011;55017;52.848;6.748;2023-05-07T08:08:42;147.70;;;140.50;;
57057;SDS011;55017;52.848;6.748;2023-05-07T08:11:07;149.73;;;142.47;;
57057;SDS011;55017;52.848;6.748;2023-05-07T08:13:33;148.75;;;141.70;;
57057;SDS011;55017;52.848;6.748;2023-05-07T08:15:59;147.82;;;140.80;;
57057;SDS011;55017;52.848;6.748;2023-05-07T08:18:25;144.55;;;137.90;;
57057;SDS011;55017;52.848;6.748;2023-05-07T08:20:50;146.35;;;139.40;;
57057;SDS011;55017;52.848;6.748;2023-05-07T08:23:16;150.50;;;143.40;;
57057;SDS011;55017;52.848;6.748;2023-05-07T08:25:41;147.95;;;140.90;;
57057;SDS011;55017;52.848;6.748;2023-05-07T08:28:07;146.50;;;139.50;;
57057;SDS011;55017;52.848;6.748;2023-05-07T08:30:33;148.43;;;141.23;;
57057;SDS011;55017;52.848;6.748;2023-05-07T08:32:59;150.30;;;143.30;;
57057;SDS011;55017;52.848;6.748;2023-05-07T08:35:25;148.40;;;141.30;;
57057;SDS011;55017;52.848;6.748;2023-05-07T08:37:52;145.40;;;138.50;;
57057;SDS011;55017;52.848;6.748;2023-05-07T08:40:17;150.20;;;143.30;;
57057;SDS011;55017;52.848;6.748;2023-05-07T08:42:43;145.63;;;138.67;;
57057;SDS011;55017;52.848;6.748;2023-05-07T08:45:10;149.15;;;142.35;;
57057;SDS011;55017;52.848;6.748;2023-05-07T08:47:43;150.15;;;143.25;;
57057;SDS011;55017;52.848;6.748;2023-05-07T08:50:12;146.90;;;140.10;;
57057;SDS011;55017;52.848;6.748;2023-05-07T08:52:41;146.85;;;140.00;;
57057;SDS011;55017;52.848;6.748;2023-05-07T08:55:07;143.52;;;136.95;;
57057;SDS011;55017;52.848;6.748;2023-05-07T08:57:34;145.60;;;138.90;;
57057;SDS011;55017;52.848;6.748;2023-05-07T09:00:00;148.60;;;142.00;;
57057;SDS011;55017;52.848;6.748;2023-05-07T09:04:52;146.95;;;140.45;;
57057;SDS011;55017;52.848;6.748;2023-05-07T09:07:18;151.25;;;144.45;;
57057;SDS011;55017;52.848;6.748;2023-05-07T09:09:45;143.32;;;136.82;;
57057;SDS011;55017;52.848;6.748;2023-05-07T09:12:11;144.20;;;137.90;;
57057;SDS011;55017;52.848;6.748;2023-05-07T09:14:37;146.90;;;140.27;;
57057;SDS011;55017;52.848;6.748;2023-05-07T09:17:03;145.00;;;138.70;;
57057;SDS011;55017;52.848;6.748;2023-05-07T09:19:28;144.52;;;138.43;;
57057;SDS011;55017;52.848;6.748;2023-05-07T09:21:58;145.07;;;138.80;;
57057;SDS011;55017;52.848;6.748;2023-05-07T09:24:29;140.85;;;134.60;;
57057;SDS011;55017;52.848;6.748;2023-05-07T09:26:59;147.40;;;141.18;;
57057;SDS011;55017;52.848;6.748;2023-05-07T09:29:27;141.65;;;135.75;;
57057;SDS011;55017;52.848;6.748;2023-05-07T09:32:00;144.45;;;138.35;;
57057;SDS011;55017;52.848;6.748;2023-05-07T09:34:28;145.50;;;139.38;;
57057;SDS011;55017;52.848;6.748;2023-05-07T09:36:55;142.77;;;136.80;;
57057;SDS011;55017;52.848;6.748;2023-05-07T09:39:21;142.13;;;136.13;;
57057;SDS011;55017;52.848;6.748;2023-05-07T09:41:48;147.93;;;141.68;;
57057;SDS011;55017;52.848;6.748;2023-05-07T09:44:19;144.55;;;138.52;;
57057;SDS011;55017;52.848;6.748;2023-05-07T09:46:45;139.93;;;133.90;;
57057;SDS011;55017;52.848;6.748;2023-05-07T09:49:20;137.68;;;132.00;;
57057;SDS011;55017;52.848;6.748;2023-05-07T09:51:50;137.38;;;131.73;;
57057;SDS011;55017;52.848;6.748;2023-05-07T09:54:17;141.35;;;135.45;;
57057;SDS011;55017;52.848;6.748;2023-05-07T09:56:44;137.60;;;131.65;;
57057;SDS011;55017;52.848;6.748;2023-05-07T09:59:10;138.32;;;132.63;;
57057;SDS011;55017;52.848;6.748;2023-05-07T10:01:39;142.38;;;136.73;;
57057;SDS011;55017;52.848;6.748;2023-05-07T10:04:07;140.02;;;134.40;;
57057;SDS011;55017;52.848;6.748;2023-05-07T10:06:34;141.10;;;135.55;;
57057;SDS011;55017;52.848;6.748;2023-05-07T10:09:00;135.55;;;130.05;;
57057;SDS011;55017;52.848;6.748;2023-05-07T10:11:25;137.95;;;132.35;;
57057;SDS011;55017;52.848;6.748;2023-05-07T10:13:52;138.95;;;133.50;;
57057;SDS011;55017;52.848;6.748;2023-05-07T10:16:18;140.18;;;134.55;;
57057;SDS011;55017;52.848;6.748;2023-05-07T10:18:46;137.55;;;132.02;;
57057;SDS011;55017;52.848;6.748;2023-05-07T10:21:17;139.70;;;134.20;;
57057;SDS011;55017;52.848;6.748;2023-05-07T10:23:56;137.55;;;132.07;;
57057;SDS011;55017;52.848;6.748;2023-05-07T10:26:31;136.65;;;131.15;;
57057;SDS011;55017;52.848;6.748;2023-05-07T10:29:04;138.07;;;132.48;;
57057;SDS011;55017;52.848;6.748;2023-05-07T10:34:11;135.15;;;129.85;;
57057;SDS011;55017;52.848;6.748;2023-05-07T10:36:41;135.32;;;130.02;;
57057;SDS011;55017;52.848;6.748;2023-05-07T10:39:07;137.10;;;131.95;;
57057;SDS011;55017;52.848;6.748;2023-05-07T10:41:33;132.98;;;127.68;;
57057;SDS011;55017;52.848;6.748;2023-05-07T10:43:59;134.18;;;128.98;;
57057;SDS011;55017;52.848;6.748;2023-05-07T10:46:27;133.57;;;128.45;;
57057;SDS011;55017;52.848;6.748;2023-05-07T10:51:33;133.15;;;127.95;;
57057;SDS011;55017;52.848;6.748;2023-05-07T11:01:55;134.30;;;129.10;;
57057;SDS011;55017;52.848;6.748;2023-05-07T11:04:28;131.20;;;126.10;;
57057;SDS011;55017;52.848;6.748;2023-05-07T11:15:07;130.55;;;125.45;;
57057;SDS011;55017;52.848;6.748;2023-05-07T11:17:34;130.10;;;124.90;;
57057;SDS011;55017;52.848;6.748;2023-05-07T11:20:16;135.45;;;130.25;;
57057;SDS011;55017;52.848;6.748;2023-05-07T11:22:42;132.40;;;127.40;;
57057;SDS011;55017;52.848;6.748;2023-05-07T11:25:08;129.10;;;124.05;;
57057;SDS011;55017;52.848;6.748;2023-05-07T11:27:33;131.13;;;126.03;;
57057;SDS011;55017;52.848;6.748;2023-05-07T11:29:59;129.75;;;124.95;;
57057;SDS011;55017;52.848;6.748;2023-05-07T11:32:28;131.35;;;126.25;;
57057;SDS011;55017;52.848;6.748;2023-05-07T11:34:55;127.90;;;122.80;;
57057;SDS011;55017;52.848;6.748;2023-05-07T11:37:22;127.72;;;122.72;;
57057;SDS011;55017;52.848;6.748;2023-05-07T11:39:49;128.33;;;123.47;;
57057;SDS011;55017;52.848;6.748;2023-05-07T11:42:44;129.15;;;124.25;;
57057;SDS011;55017;52.848;6.748;2023-05-07T11:45:09;126.30;;;121.40;;
57057;SDS011;55017;52.848;6.748;2023-05-07T11:47:35;128.90;;;123.70;;
57057;SDS011;55017;52.848;6.748;2023-05-07T11:50:04;130.20;;;124.97;;
57057;SDS011;55017;52.848;6.748;2023-05-07T11:52:33;130.50;;;125.50;;
57057;SDS011;55017;52.848;6.748;2023-05-07T11:55:00;127.30;;;122.60;;
57057;SDS011;55017;52.848;6.748;2023-05-07T11:57:27;130.40;;;125.40;;
57057;SDS011;55017;52.848;6.748;2023-05-07T11:59:54;126.30;;;121.40;;
57057;SDS011;55017;52.848;6.748;2023-05-07T12:02:20;126.60;;;121.95;;
57057;SDS011;55017;52.848;6.748;2023-05-07T12:04:46;126.05;;;121.05;;
57057;SDS011;55017;52.848;6.748;2023-05-07T12:07:12;128.98;;;124.18;;
57057;SDS011;55017;52.848;6.748;2023-05-07T12:09:41;129.07;;;124.22;;
57057;SDS011;55017;52.848;6.748;2023-05-07T12:12:07;129.60;;;124.80;;
57057;SDS011;55017;52.848;6.748;2023-05-07T12:14:37;130.88;;;125.97;;
57057;SDS011;55017;52.848;6.748;2023-05-07T12:17:07;131.65;;;126.75;;
57057;SDS011;55017;52.848;6.748;2023-05-07T12:19:34;127.35;;;122.53;;
57057;SDS011;55017;52.848;6.748;2023-05-07T12:22:01;126.90;;;122.13;;
57057;SDS011;55017;52.848;6.748;2023-05-07T12:24:28;126.83;;;122.13;;
57057;SDS011;55017;52.848;6.748;2023-05-07T12:26:53;127.40;;;122.40;;
57057;SDS011;55017;52.848;6.748;2023-05-07T12:29:22;129.93;;;124.93;;
57057;SDS011;55017;52.848;6.748;2023-05-07T12:31:49;126.20;;;121.50;;
57057;SDS011;55017;52.848;6.748;2023-05-07T12:34:15;129.67;;;124.77;;
57057;SDS011;55017;52.848;6.748;2023-05-07T12:36:41;125.90;;;121.20;;
57057;SDS011;55017;52.848;6.748;2023-05-07T12:39:07;125.20;;;120.60;;
57057;SDS011;55017;52.848;6.748;2023-05-07T12:44:18;126.40;;;121.60;;
57057;SDS011;55017;52.848;6.748;2023-05-07T12:51:35;123.60;;;119.05;;
57057;SDS011;55017;52.848;6.748;2023-05-07T12:56:26;122.15;;;117.57;;
57057;SDS011;55017;52.848;6.748;2023-05-07T12:58:51;121.35;;;116.95;;
57057;SDS011;55017;52.848;6.748;2023-05-07T13:03:53;121.70;;;117.10;;
57057;SDS011;55017;52.848;6.748;2023-05-07T13:11:10;125.95;;;121.25;;
57057;SDS011;55017;52.848;6.748;2023-05-07T13:13:37;117.10;;;112.60;;
57057;SDS011;55017;52.848;6.748;2023-05-07T13:18:31;122.10;;;117.50;;
57057;SDS011;55017;52.848;6.748;2023-05-07T13:20:57;121.10;;;116.60;;
57057;SDS011;55017;52.848;6.748;2023-05-07T13:23:24;124.60;;;120.00;;
57057;SDS011;55017;52.848;6.748;2023-05-07T13:25:50;123.70;;;119.20;;
57057;SDS011;55017;52.848;6.748;2023-05-07T13:28:17;124.55;;;120.05;;
57057;SDS011;55017;52.848;6.748;2023-05-07T13:30:43;126.43;;;121.83;;
57057;SDS011;55017;52.848;6.748;2023-05-07T13:33:09;125.60;;;120.85;;
57057;SDS011;55017;52.848;6.748;2023-05-07T13:35:35;126.55;;;121.95;;
57057;SDS011;55017;52.848;6.748;2023-05-07T13:38:00;115.27;;;110.97;;
57057;SDS011;55017;52.848;6.748;2023-05-07T13:42:51;121.60;;;117.30;;
57057;SDS011;55017;52.848;6.748;2023-05-07T13:45:18;124.80;;;120.30;;
57057;SDS011;55017;52.848;6.748;2023-05-07T13:47:44;126.00;;;121.35;;
57057;SDS011;55017;52.848;6.748;2023-05-07T13:50:10;125.37;;;120.97;;
57057;SDS011;55017;52.848;6.748;2023-05-07T13:52:36;125.00;;;120.50;;
57057;SDS011;55017;52.848;6.748;2023-05-07T13:55:02;125.63;;;121.03;;
57057;SDS011;55017;52.848;6.748;2023-05-07T13:57:28;128.20;;;123.50;;
57057;SDS011;55017;52.848;6.748;2023-05-07T13:59:54;127.75;;;123.25;;
57057;SDS011;55017;52.848;6.748;2023-05-07T14:02:20;115.85;;;111.43;;
57057;SDS011;55017;52.848;6.748;2023-05-07T14:07:11;123.70;;;119.20;;
57057;SDS011;55017;52.848;6.748;2023-05-07T14:09:36;125.55;;;121.05;;
57057;SDS011;55017;52.848;6.748;2023-05-07T14:12:02;124.40;;;119.97;;
57057;SDS011;55017;52.848;6.748;2023-05-07T14:14:28;123.50;;;119.00;;
57057;SDS011;55017;52.848;6.748;2023-05-07T14:19:19;123.63;;;119.13;;
57057;SDS011;55017;52.848;6.748;2023-05-07T14:21:44;125.23;;;120.83;;
57057;SDS011;55017;52.848;6.748;2023-05-07T14:24:10;123.20;;;118.93;;
57057;SDS011;55017;52.848;6.748;2023-05-07T14:26:36;123.47;;;119.07;;
57057;SDS011;55017;52.848;6.748;2023-05-07T14:29:02;121.80;;;117.50;;
57057;SDS011;55017;52.848;6.748;2023-05-07T14:31:28;127.40;;;122.80;;
57057;SDS011;55017;52.848;6.748;2023-05-07T14:33:54;122.70;;;118.40;;
57057;SDS011;55017;52.848;6.748;2023-05-07T14:36:19;126.45;;;121.90;;
57057;SDS011;55017;52.848;6.748;2023-05-07T14:38:46;128.25;;;123.55;;
57057;SDS011;55017;52.848;6.748;2023-05-07T14:41:12;127.65;;;122.97;;
57057;SDS011;55017;52.848;6.748;2023-05-07T14:43:37;127.78;;;123.22;;
57057;SDS011;55017;52.848;6.748;2023-05-07T14:46:03;126.60;;;122.07;;